Time;durP1;ratioP1;P1;durP2;ratioP2;P2;SDS_P1;SDS_P2;PMS_P1;PMS_P2;Temp;Humidity;BMP_temperature;BMP_pressure;BME280_temperature;BME280_humidity;BME280_pressure;Samples;Min_cycle;Max_cycle;Signal;HPM_P1;HPM_P2
2022/09/23 00:02:12;;;;;;;5.30;2.90;;;;;;;;;;6179198;28;20041;-84
2022/09/23 00:05:14;;;;;;;5.50;2.83;;;;;;;;;;6215730;28;20058;-82
2022/09/23 00:08:16;;;;;;;2.80;2.50;;;;;;;;;;6187074;28;20481;-83
2022/09/23 00:11:28;;;;;;;3.60;2.85;;;;;;;;;;6157676;28;20072;-81
2022/09/23 00:14:30;;;;;;;5.10;2.90;;;;;;;;;;6191016;28;20077;-80
2022/09/23 00:17:31;;;;;;;4.18;2.90;;;;;;;;;;6200925;28;20041;-82
2022/09/23 00:20:35;;;;;;;4.97;2.83;;;;;;;;;;6194895;28;20057;-81
2022/09/23 00:23:37;;;;;;;4.07;2.72;;;;;;;;;;6193938;28;20046;-82
2022/09/23 00:26:39;;;;;;;5.87;3.27;;;;;;;;;;6197410;28;20104;-80
2022/09/23 00:29:40;;;;;;;5.53;2.72;;;;;;;;;;6207029;23;20486;-81
2022/09/23 00:32:42;;;;;;;4.45;3.20;;;;;;;;;;6168951;28;20089;-81
2022/09/23 00:35:43;;;;;;;3.85;2.78;;;;;;;;;;6183673;28;20437;-81
2022/09/23 00:38:45;;;;;;;5.03;2.90;;;;;;;;;;6158260;28;20067;-81
2022/09/23 00:41:47;;;;;;;4.38;2.80;;;;;;;;;;6168093;28;20050;-81
2022/09/23 00:44:58;;;;;;;4.15;2.90;;;;;;;;;;6179820;28;20050;-81
2022/09/23 00:48:01;;;;;;;4.25;2.67;;;;;;;;;;6182987;28;20465;-81
2022/09/23 00:51:06;;;;;;;5.07;2.85;;;;;;;;;;6184247;28;20596;-80
2022/09/23 00:54:08;;;;;;;6.63;2.58;;;;;;;;;;6165455;28;20045;-81
2022/09/23 00:57:10;;;;;;;5.05;2.60;;;;;;;;;;6165036;28;20428;-81
2022/09/23 01:00:13;;;;;;;5.22;2.70;;;;;;;;;;6167015;28;20051;-81
2022/09/23 01:03:15;;;;;;;5.47;2.80;;;;;;;;;;6185701;28;20062;-81
2022/09/23 01:06:16;;;;;;;4.88;3.03;;;;;;;;;;6167830;28;20616;-80
2022/09/23 01:09:20;;;;;;;4.18;2.67;;;;;;;;;;6185371;28;20046;-80
2022/09/23 01:12:40;;;;;;;;;;;;;;;;;;6189225;28;20061;-81
2022/09/23 01:16:07;;;;;;;5.50;3.55;;;;;;;;;;6181352;28;19929;-80
2022/09/23 01:19:46;;;;;;;4.57;2.90;;;;;;;;;;6190099;28;20034;-81
2022/09/23 01:23:28;;;;;;;4.78;3.05;;;;;;;;;;6167744;28;20055;-81
2022/09/23 01:26:48;;;;;;;3.85;2.78;;;;;;;;;;6164528;28;20050;-81
2022/09/23 01:30:13;;;;;;;6.35;3.05;;;;;;;;;;6168358;28;20042;-80
2022/09/23 01:33:33;;;;;;;5.45;3.00;;;;;;;;;;6190114;28;20154;-81
2022/09/23 01:36:41;;;;;;;3.03;2.70;;;;;;;;;;6185284;28;20137;-81
2022/09/23 01:39:55;;;;;;;4.80;3.45;;;;;;;;;;6163922;28;20424;-81
2022/09/23 01:43:12;;;;;;;5.28;3.05;;;;;;;;;;6168637;28;20046;-81
2022/09/23 01:46:21;;;;;;;5.10;3.22;;;;;;;;;;6151754;28;20046;-81
2022/09/23 01:49:33;;;;;;;3.67;2.75;;;;;;;;;;6169298;28;20092;-80
2022/09/23 01:52:40;;;;;;;6.63;3.47;;;;;;;;;;6169834;28;20258;-80
2022/09/23 01:55:49;;;;;;;5.13;3.20;;;;;;;;;;6186092;28;20038;-80
2022/09/23 01:59:15;;;;;;;5.40;3.83;;;;;;;;;;6182462;28;20054;-80
2022/09/23 02:02:27;;;;;;;6.13;3.50;;;;;;;;;;6186453;28;20133;-80
2022/09/23 02:05:36;;;;;;;4.28;3.05;;;;;;;;;;6188217;28;20047;-80
2022/09/23 02:08:44;;;;;;;4.88;3.55;;;;;;;;;;6171018;28;20124;-80
2022/09/23 02:11:48;;;;;;;6.90;3.28;;;;;;;;;;6186979;28;20050;-80
2022/09/23 02:15:14;;;;;;;5.57;3.67;;;;;;;;;;6153764;28;20507;-80
2022/09/23 02:18:21;;;;;;;6.75;3.20;;;;;;;;;;6150301;28;20066;-80
2022/09/23 02:21:32;;;;;;;5.53;3.78;;;;;;;;;;6169119;28;20092;-80
2022/09/23 02:24:37;;;;;;;5.53;3.55;;;;;;;;;;6183242;28;20046;-80
2022/09/23 02:27:45;;;;;;;4.85;3.67;;;;;;;;;;6178784;28;20114;-80
2022/09/23 02:30:55;;;;;;;5.93;3.80;;;;;;;;;;6180660;28;20591;-80
2022/09/23 02:34:05;;;;;;;4.45;3.97;;;;;;;;;;6181330;28;20201;-80
2022/09/23 02:37:42;;;;;;;5.32;3.33;;;;;;;;;;6170241;28;20222;-80
2022/09/23 02:41:03;;;;;;;5.45;3.67;;;;;;;;;;6190249;28;20041;-80
2022/09/23 02:44:08;;;;;;;4.70;3.33;;;;;;;;;;6186276;28;20054;-80
2022/09/23 02:47:10;;;;;;;5.82;3.67;;;;;;;;;;6182386;28;20046;-80
2022/09/23 02:50:12;;;;;;;6.15;4.10;;;;;;;;;;6169644;28;20561;-80
2022/09/23 02:53:15;;;;;;;6.10;3.40;;;;;;;;;;6159861;28;20106;-80
2022/09/23 02:56:20;;;;;;;4.60;3.40;;;;;;;;;;6191261;28;20117;-80
2022/09/23 02:59:23;;;;;;;3.92;3.20;;;;;;;;;;6158398;28;20046;-80
2022/09/23 03:02:50;;;;;;;5.13;3.53;;;;;;;;;;6174394;28;20424;-80
2022/09/23 03:05:56;;;;;;;4.72;3.20;;;;;;;;;;6185954;28;20460;-80
2022/09/23 03:09:43;;;;;;;4.10;3.13;;;;;;;;;;6166288;28;20053;-80
2022/09/23 03:13:15;;;;;;;6.35;3.55;;;;;;;;;;6145053;28;20046;-80
2022/09/23 03:16:32;;;;;;;4.68;3.30;;;;;;;;;;6159501;28;20073;-80
2022/09/23 03:19:36;;;;;;;4.40;3.25;;;;;;;;;;6183656;28;20125;-80
2022/09/23 03:22:53;;;;;;;5.95;3.80;;;;;;;;;;6165920;28;20057;-80
2022/09/23 03:25:59;;;;;;;4.03;3.20;;;;;;;;;;6184249;28;20410;-80
2022/09/23 03:29:08;;;;;;;6.80;3.78;;;;;;;;;;6183326;28;20056;-80
2022/09/23 03:32:11;;;;;;;4.75;3.70;;;;;;;;;;6162797;28;20125;-80
2022/09/23 03:35:13;;;;;;;;;;;;;;;;;;6188440;28;20038;-80
2022/09/23 03:38:16;;;;;;;4.07;3.10;;;;;;;;;;6143157;28;19944;-80
2022/09/23 03:41:27;;;;;;;3.97;3.25;;;;;;;;;;6183114;28;20042;-80
2022/09/23 03:44:36;;;;;;;4.85;3.45;;;;;;;;;;6159734;28;20046;-80
2022/09/23 03:47:38;;;;;;;5.38;3.20;;;;;;;;;;6166205;28;20105;-80
2022/09/23 03:50:40;;;;;;;4.50;3.20;;;;;;;;;;6166150;28;20055;-80
2022/09/23 03:53:41;;;;;;;4.00;3.00;;;;;;;;;;6150620;28;20038;-80
2022/09/23 03:56:43;;;;;;;4.80;3.35;;;;;;;;;;6178784;28;20096;-80
2022/09/23 03:59:45;;;;;;;6.85;3.60;;;;;;;;;;6179794;28;20061;-80
2022/09/23 04:02:48;;;;;;;6.90;3.63;;;;;;;;;;6181482;28;20048;-80
2022/09/23 04:05:50;;;;;;;6.72;4.75;;;;;;;;;;6170258;28;20053;-80
2022/09/23 04:08:52;;;;;;;8.82;4.40;;;;;;;;;;6183080;28;20139;-80
2022/09/23 04:11:56;;;;;;;7.00;4.28;;;;;;;;;;6151057;28;20061;-80
2022/09/23 04:14:58;;;;;;;7.97;4.60;;;;;;;;;;6162378;28;20050;-80
2022/09/23 04:18:00;;;;;;;6.45;4.00;;;;;;;;;;6164376;28;20456;-80
2022/09/23 04:21:02;;;;;;;6.45;4.63;;;;;;;;;;6158424;28;20134;-81
2022/09/23 04:24:04;;;;;;;7.97;4.15;;;;;;;;;;6163776;28;20515;-80
2022/09/23 04:27:05;;;;;;;6.88;4.40;;;;;;;;;;6179577;28;20050;-81
2022/09/23 04:30:07;;;;;;;6.90;4.18;;;;;;;;;;6177106;28;20042;-80
2022/09/23 04:33:10;;;;;;;6.22;3.92;;;;;;;;;;6179836;28;20189;-80
2022/09/23 04:36:11;;;;;;;6.03;4.22;;;;;;;;;;6180048;28;20650;-80
2022/09/23 04:39:14;;;;;;;7.07;4.10;;;;;;;;;;6151265;28;20053;-80
2022/09/23 04:42:15;;;;;;;5.32;4.30;;;;;;;;;;6165359;28;20050;-80
2022/09/23 04:45:17;;;;;;;7.82;4.15;;;;;;;;;;6181392;28;20110;-80
2022/09/23 04:48:19;;;;;;;6.50;4.10;;;;;;;;;;6169800;28;20064;-80
2022/09/23 04:51:23;;;;;;;7.15;4.60;;;;;;;;;;6173293;28;20042;-80
2022/09/23 04:54:25;;;;;;;6.60;4.18;;;;;;;;;;6185371;28;20659;-80
2022/09/23 04:57:28;;;;;;;5.43;3.67;;;;;;;;;;6155122;28;20046;-80
2022/09/23 05:00:29;;;;;;;6.03;4.25;;;;;;;;;;6171690;28;20038;-80
2022/09/23 05:03:34;;;;;;;5.30;3.92;;;;;;;;;;6168175;28;20045;-80
2022/09/23 05:06:36;;;;;;;8.05;4.32;;;;;;;;;;6169566;28;20086;-80
2022/09/23 05:09:37;;;;;;;8.13;4.30;;;;;;;;;;6180064;28;20085;-80
2022/09/23 05:12:41;;;;;;;7.00;4.18;;;;;;;;;;6188237;28;20038;-80
2022/09/23 05:15:43;;;;;;;7.68;4.57;;;;;;;;;;6173539;28;20046;-81
2022/09/23 05:18:49;;;;;;;11.52;5.28;;;;;;;;;;6191460;28;20125;-81
2022/09/23 05:21:51;;;;;;;9.80;6.47;;;;;;;;;;6170833;28;20053;-81
2022/09/23 05:24:53;;;;;;;8.90;7.10;;;;;;;;;;6189067;28;20046;-81
2022/09/23 05:27:55;;;;;;;9.52;6.22;;;;;;;;;;6188194;28;20060;-81
2022/09/23 05:31:05;;;;;;;9.65;6.18;;;;;;;;;;6173073;28;20051;-81
2022/09/23 05:34:07;;;;;;;7.38;5.65;;;;;;;;;;6161909;28;20065;-80
2022/09/23 05:37:08;;;;;;;9.55;6.10;;;;;;;;;;6182513;28;20042;-81
2022/09/23 05:40:10;;;;;;;11.20;6.60;;;;;;;;;;6160723;28;20428;-80
2022/09/23 05:43:12;;;;;;;14.35;8.15;;;;;;;;;;6173638;28;20046;-81
2022/09/23 05:46:16;;;;;;;17.52;7.53;;;;;;;;;;6168033;28;20044;-81
2022/09/23 05:49:18;;;;;;;8.55;6.10;;;;;;;;;;6180892;28;20425;-81
2022/09/23 05:52:20;;;;;;;10.70;5.95;;;;;;;;;;6169480;28;20053;-80
2022/09/23 05:55:21;;;;;;;8.40;4.80;;;;;;;;;;6176225;28;20086;-81
2022/09/23 05:58:24;;;;;;;8.68;5.40;;;;;;;;;;6168146;28;20634;-80
2022/09/23 06:01:27;;;;;;;6.50;4.18;;;;;;;;;;6172335;28;20054;-80
2022/09/23 06:04:29;;;;;;;7.00;4.97;;;;;;;;;;6171706;28;20054;-81
2022/09/23 06:07:31;;;;;;;7.65;4.93;;;;;;;;;;6179230;28;20043;-81
2022/09/23 06:10:38;;;;;;;11.98;5.88;;;;;;;;;;6167693;28;20128;-81
2022/09/23 06:13:40;;;;;;;7.95;4.80;;;;;;;;;;6167203;28;20046;-80
2022/09/23 06:16:44;;;;;;;14.05;10.32;;;;;;;;;;6171139;28;20524;-81
2022/09/23 06:19:46;;;;;;;17.42;12.95;;;;;;;;;;6181299;28;20057;-81
2022/09/23 06:22:47;;;;;;;11.82;9.07;;;;;;;;;;6148438;28;20153;-81
2022/09/23 06:26:03;;;;;;;8.98;6.78;;;;;;;;;;6161447;28;20043;-81
2022/09/23 06:29:10;;;;;;;11.77;7.85;;;;;;;;;;6185914;28;20069;-81
2022/09/23 06:32:12;;;;;;;12.02;7.10;;;;;;;;;;6164544;28;20046;-80
2022/09/23 06:35:13;;;;;;;12.32;7.88;;;;;;;;;;6165509;28;20058;-80
2022/09/23 06:38:28;;;;;;;9.73;6.22;;;;;;;;;;6182925;28;20054;-79
2022/09/23 06:41:30;;;;;;;9.38;5.47;;;;;;;;;;6150605;28;20046;-80
2022/09/23 06:44:31;;;;;;;10.35;6.57;;;;;;;;;;6165245;28;20035;-80
2022/09/23 06:47:33;;;;;;;13.15;7.50;;;;;;;;;;6159256;28;21457;-80
2022/09/23 06:50:35;;;;;;;11.38;6.20;;;;;;;;;;6178417;28;20039;-81
2022/09/23 06:53:38;;;;;;;11.13;6.45;;;;;;;;;;6160733;28;20385;-81
2022/09/23 06:56:43;;;;;;;14.90;7.43;;;;;;;;;;6148060;28;20057;-81
2022/09/23 06:59:46;;;;;;;11.32;7.10;;;;;;;;;;6182515;28;20990;-81
2022/09/23 07:02:47;;;;;;;13.52;8.05;;;;;;;;;;6165377;28;20058;-81
2022/09/23 07:05:53;;;;;;;12.02;7.55;;;;;;;;;;6187612;28;20061;-81
2022/09/23 07:08:55;;;;;;;13.20;6.78;;;;;;;;;;6182242;28;20046;-84
2022/09/23 07:11:56;;;;;;;10.55;6.88;;;;;;;;;;6169114;28;20050;-84
2022/09/23 07:14:58;;;;;;;9.02;6.65;;;;;;;;;;6167447;28;20049;-85
2022/09/23 07:18:01;;;;;;;11.63;6.55;;;;;;;;;;6160045;28;20062;-85
2022/09/23 07:21:08;;;;;;;7.97;5.40;;;;;;;;;;6183162;28;20154;-85
2022/09/23 07:24:10;;;;;;;8.38;5.32;;;;;;;;;;6182504;28;20051;-85
2022/09/23 07:27:18;;;;;;;8.05;6.03;;;;;;;;;;6182771;28;20508;-85
2022/09/23 07:30:20;;;;;;;11.60;6.13;;;;;;;;;;6160093;28;20104;-84
2022/09/23 07:33:30;;;;;;;11.73;5.25;;;;;;;;;;6184811;28;20050;-84
2022/09/23 07:36:36;;;;;;;7.78;5.38;;;;;;;;;;6148831;28;20058;-85
2022/09/23 07:39:38;;;;;;;8.48;5.78;;;;;;;;;;6182256;28;20050;-84
2022/09/23 07:42:40;;;;;;;7.90;4.80;;;;;;;;;;6164866;28;20056;-84
2022/09/23 07:45:42;;;;;;;10.48;4.32;;;;;;;;;;6163212;28;20046;-84
2022/09/23 07:48:44;;;;;;;11.27;4.60;;;;;;;;;;6176295;28;20125;-84
2022/09/23 07:51:46;;;;;;;13.82;4.88;;;;;;;;;;6157292;28;20148;-83
2022/09/23 07:54:48;;;;;;;16.13;5.93;;;;;;;;;;6181113;28;20355;-83
2022/09/23 07:57:50;;;;;;;14.30;4.97;;;;;;;;;;6174670;28;20046;-84
2022/09/23 08:00:52;;;;;;;14.90;4.75;;;;;;;;;;6172361;28;20106;-84
2022/09/23 08:03:59;;;;;;;11.80;4.80;;;;;;;;;;6173305;28;20054;-84
2022/09/23 08:07:03;;;;;;;10.55;5.18;;;;;;;;;;6190910;28;20149;-83
2022/09/23 08:10:06;;;;;;;10.57;4.15;;;;;;;;;;6193580;28;20053;-84
2022/09/23 08:13:08;;;;;;;12.05;3.72;;;;;;;;;;6165860;28;20113;-86
2022/09/23 08:16:10;;;;;;;10.68;4.03;;;;;;;;;;6195902;28;20049;-85
2022/09/23 08:19:13;;;;;;;8.60;3.80;;;;;;;;;;6179417;28;20110;-85
2022/09/23 08:22:15;;;;;;;8.50;3.90;;;;;;;;;;6170493;28;20574;-85
2022/09/23 08:25:18;;;;;;;9.40;4.00;;;;;;;;;;6178864;28;20073;-85
2022/09/23 08:28:23;;;;;;;13.32;3.85;;;;;;;;;;6182404;28;20564;-85
2022/09/23 08:31:25;;;;;;;10.57;3.80;;;;;;;;;;6147016;28;20084;-85
2022/09/23 08:34:27;;;;;;;8.30;3.50;;;;;;;;;;6147611;28;20093;-85
2022/09/23 08:37:29;;;;;;;7.15;3.83;;;;;;;;;;6152409;28;20129;-86
2022/09/23 08:40:37;;;;;;;5.68;3.65;;;;;;;;;;6136227;28;20685;-86
2022/09/23 08:43:47;;;;;;;5.38;3.42;;;;;;;;;;6150780;28;20543;-85
2022/09/23 08:47:12;;;;;;;9.38;4.15;;;;;;;;;;6173151;28;20132;-85
2022/09/23 08:50:22;;;;;;;8.93;3.78;;;;;;;;;;6174259;28;20177;-87
2022/09/23 08:53:28;;;;;;;4.05;3.35;;;;;;;;;;6173867;28;20428;-85
2022/09/23 08:56:31;;;;;;;6.95;3.15;;;;;;;;;;6174088;28;20517;-85
2022/09/23 08:59:43;;;;;;;6.95;3.20;;;;;;;;;;6171373;28;20042;-84
2022/09/23 09:02:49;;;;;;;5.47;3.40;;;;;;;;;;6157081;28;20050;-84
2022/09/23 09:05:52;;;;;;;5.43;3.25;;;;;;;;;;6136749;28;20054;-85
2022/09/23 09:09:00;;;;;;;4.82;3.53;;;;;;;;;;6161813;28;20125;-86
2022/09/23 09:12:16;;;;;;;3.20;2.60;;;;;;;;;;6168499;28;20053;-86
2022/09/23 09:15:25;;;;;;;3.50;2.40;;;;;;;;;;6182455;28;20042;-85
2022/09/23 09:18:32;;;;;;;5.30;2.63;;;;;;;;;;6149689;28;20050;-84
2022/09/23 09:21:38;;;;;;;4.10;2.70;;;;;;;;;;6185794;28;20046;-84
2022/09/23 09:24:44;;;;;;;4.40;2.97;;;;;;;;;;6158251;28;20042;-85
2022/09/23 09:27:46;;;;;;;4.47;2.60;;;;;;;;;;6187051;28;20125;-85
2022/09/23 09:30:53;;;;;;;2.85;2.22;;;;;;;;;;6186676;28;20051;-85
2022/09/23 09:34:12;;;;;;;3.10;2.80;;;;;;;;;;6179665;28;20046;-84
2022/09/23 09:37:24;;;;;;;3.22;2.20;;;;;;;;;;6168195;28;20046;-85
2022/09/23 09:40:26;;;;;;;3.43;2.30;;;;;;;;;;6166822;28;20502;-84
2022/09/23 09:43:27;;;;;;;3.72;2.65;;;;;;;;;;6183443;28;20471;-84
2022/09/23 09:46:35;;;;;;;3.17;2.88;;;;;;;;;;6167717;28;20543;-84
2022/09/23 09:49:53;;;;;;;3.05;2.17;;;;;;;;;;6170313;28;20053;-84
2022/09/23 09:53:14;;;;;;;3.00;2.20;;;;;;;;;;6166886;28;20428;-84
2022/09/23 09:56:17;;;;;;;3.50;1.95;;;;;;;;;;6188001;28;20085;-84
2022/09/23 09:59:27;;;;;;;4.40;2.42;;;;;;;;;;6167148;28;20054;-84
2022/09/23 10:02:32;;;;;;;3.75;2.50;;;;;;;;;;6184972;28;20767;-84
2022/09/23 10:05:46;;;;;;;3.58;2.60;;;;;;;;;;6162084;28;20595;-84
2022/09/23 10:09:07;;;;;;;2.65;2.10;;;;;;;;;;6172147;28;20129;-84
2022/09/23 10:12:14;;;;;;;3.08;2.17;;;;;;;;;;6176091;28;20043;-85
2022/09/23 10:15:29;;;;;;;2.22;2.00;;;;;;;;;;6183254;28;20050;-84
2022/09/23 10:18:48;;;;;;;4.80;2.38;;;;;;;;;;6185793;28;21089;-84
2022/09/23 10:21:58;;;;;;;2.65;2.08;;;;;;;;;;6185801;28;20089;-84
2022/09/23 10:25:06;;;;;;;2.25;1.88;;;;;;;;;;6186059;28;20049;-84
2022/09/23 10:28:31;;;;;;;3.58;2.17;;;;;;;;;;6167014;28;20129;-84
2022/09/23 10:31:34;;;;;;;3.30;2.45;;;;;;;;;;6182983;28;20054;-84
2022/09/23 10:34:42;;;;;;;2.22;2.03;;;;;;;;;;6167691;28;20047;-84
2022/09/23 10:37:48;;;;;;;4.28;2.50;;;;;;;;;;6184251;28;20522;-84
2022/09/23 10:47:52;;;;;;;2.50;2.20;;;;;;;;;;6182398;28;20058;-84
2022/09/23 10:50:56;;;;;;;3.35;1.95;;;;;;;;;;6182801;28;20529;-84
2022/09/23 10:54:18;;;;;;;3.10;1.67;;;;;;;;;;6185358;28;20053;-84
2022/09/23 10:57:40;;;;;;;2.50;2.05;;;;;;;;;;6182210;28;20505;-84
2022/09/23 11:00:54;;;;;;;3.50;1.83;;;;;;;;;;6185429;28;20058;-83
2022/09/23 11:04:17;;;;;;;2.00;1.67;;;;;;;;;;6170962;28;20391;-84
2022/09/23 11:07:39;;;;;;;4.03;2.10;;;;;;;;;;6166969;28;20051;-84
2022/09/23 11:10:59;;;;;;;2.17;1.77;;;;;;;;;;6167884;28;20125;-84
2022/09/23 11:14:25;;;;;;;1.67;1.58;;;;;;;;;;6166299;28;20046;-84
2022/09/23 11:17:45;;;;;;;2.03;1.63;;;;;;;;;;6178319;28;20038;-83
2022/09/23 11:20:59;;;;;;;1.85;1.65;;;;;;;;;;6163391;28;20706;-84
2022/09/23 11:24:35;;;;;;;2.55;1.80;;;;;;;;;;6150164;28;20173;-83
2022/09/23 11:27:36;;;;;;;2.30;1.67;;;;;;;;;;6168694;28;20629;-84
2022/09/23 11:31:04;;;;;;;1.90;1.70;;;;;;;;;;6165617;28;20046;-83
2022/09/23 11:34:24;;;;;;;1.77;1.60;;;;;;;;;;6178364;28;20529;-83
2022/09/23 11:37:30;;;;;;;2.30;1.90;;;;;;;;;;6176655;28;20061;-83
2022/09/23 11:40:39;;;;;;;2.45;1.48;;;;;;;;;;6174733;28;20131;-83
2022/09/23 11:43:51;;;;;;;2.45;2.13;;;;;;;;;;6176971;28;20042;-83
2022/09/23 11:47:07;;;;;;;2.95;1.60;;;;;;;;;;6183070;28;20057;-84
2022/09/23 11:50:16;;;;;;;5.32;2.03;;;;;;;;;;6180758;28;20042;-83
2022/09/23 11:53:25;;;;;;;2.70;1.83;;;;;;;;;;6178504;28;20073;-83
2022/09/23 11:56:36;;;;;;;2.20;1.80;;;;;;;;;;6167123;28;20049;-83
2022/09/23 11:59:50;;;;;;;2.25;1.92;;;;;;;;;;6177214;28;20132;-83
2022/09/23 12:03:20;;;;;;;2.63;2.10;;;;;;;;;;6167071;28;20046;-83
2022/09/23 12:06:53;;;;;;;2.92;1.95;;;;;;;;;;6182120;28;20135;-83
2022/09/23 12:10:04;;;;;;;2.92;2.03;;;;;;;;;;6183924;28;20104;-83
2022/09/23 12:13:26;;;;;;;3.05;1.80;;;;;;;;;;6183788;28;20061;-83
2022/09/23 12:16:42;;;;;;;1.88;1.70;;;;;;;;;;6151361;28;20062;-82
2022/09/23 12:20:12;;;;;;;2.65;1.80;;;;;;;;;;6167111;28;20129;-82
2022/09/23 12:23:35;;;;;;;2.20;1.80;;;;;;;;;;6165907;28;20050;-82
2022/09/23 12:26:37;;;;;;;2.20;2.00;;;;;;;;;;6189491;28;20132;-82
2022/09/23 12:29:40;;;;;;;2.60;1.88;;;;;;;;;;6166623;28;20417;-83
2022/09/23 12:32:42;;;;;;;2.08;1.67;;;;;;;;;;6189615;28;20049;-82
2022/09/23 12:35:45;;;;;;;2.92;1.98;;;;;;;;;;6172236;28;20104;-82
2022/09/23 12:38:48;;;;;;;;;;;;;;;;;;6170201;28;20044;-83
2022/09/23 12:41:57;;;;;;;3.58;2.08;;;;;;;;;;6168107;28;19925;-83
2022/09/23 12:45:19;;;;;;;2.55;1.80;;;;;;;;;;6179911;28;20535;-83
2022/09/23 12:48:41;;;;;;;2.40;1.73;;;;;;;;;;6183011;28;20054;-82
2022/09/23 12:52:23;;;;;;;4.43;1.90;;;;;;;;;;6189713;28;20048;-82
2022/09/23 12:55:45;;;;;;;2.25;1.95;;;;;;;;;;6181587;28;20551;-82
2022/09/23 12:58:47;;;;;;;2.33;1.70;;;;;;;;;;6183652;28;20046;-83
2022/09/23 13:01:49;;;;;;;2.80;1.60;;;;;;;;;;6168377;28;20046;-81
2022/09/23 13:08:23;;;;;;;3.08;1.77;;;;;;;;;;6185858;28;20088;-82
2022/09/23 13:11:28;;;;;;;1.92;1.60;;;;;;;;;;6182950;28;20096;-83
2022/09/23 13:14:31;;;;;;;3.65;1.60;;;;;;;;;;6155789;28;20034;-83
2022/09/23 13:17:38;;;;;;;2.05;1.85;;;;;;;;;;6171349;28;20170;-83
2022/09/23 13:20:39;;;;;;;3.88;1.67;;;;;;;;;;6186906;28;20046;-83
2022/09/23 13:24:22;;;;;;;2.38;1.95;;;;;;;;;;6166317;28;20060;-83
2022/09/23 13:27:31;;;;;;;3.83;1.63;;;;;;;;;;6167237;28;20805;-84
2022/09/23 13:30:33;;;;;;;1.60;1.50;;;;;;;;;;6170494;28;20089;-83
2022/09/23 13:33:45;;;;;;;2.13;1.93;;;;;;;;;;6169766;28;20627;-84
2022/09/23 13:36:48;;;;;;;2.33;1.77;;;;;;;;;;6167357;28;20046;-83
2022/09/23 13:39:50;;;;;;;2.25;1.70;;;;;;;;;;6151793;28;20061;-83
2022/09/23 13:43:23;;;;;;;2.07;1.87;;;;;;;;;;6170780;28;20505;-84
2022/09/23 13:46:28;;;;;;;2.17;1.90;;;;;;;;;;6181864;28;20438;-83
2022/09/23 13:49:34;;;;;;;2.65;1.75;;;;;;;;;;6187315;28;20080;-84
2022/09/23 13:52:35;;;;;;;1.80;1.70;;;;;;;;;;6183512;28;20178;-84
2022/09/23 13:55:38;;;;;;;2.08;1.88;;;;;;;;;;6169216;28;20086;-84
2022/09/23 13:58:40;;;;;;;2.00;1.60;;;;;;;;;;6186975;28;20061;-84
2022/09/23 14:01:44;;;;;;;2.60;1.67;;;;;;;;;;6165649;28;20043;-84
2022/09/23 14:04:46;;;;;;;2.05;1.73;;;;;;;;;;6186779;28;20046;-83
2022/09/23 14:07:49;;;;;;;2.40;1.60;;;;;;;;;;6149644;28;20398;-83
2022/09/23 14:10:52;;;;;;;;;;;;;;;;;;6165552;28;20085;-84
2022/09/23 14:13:54;;;;;;;;;;;;;;;;;;6163830;28;19932;-83
2022/09/23 14:16:56;;;;;;;3.17;1.70;;;;;;;;;;6167212;28;21759;-83
2022/09/23 14:19:58;;;;;;;2.00;1.50;;;;;;;;;;6185983;28;20487;-84
2022/09/23 14:23:10;;;;;;;3.38;1.40;;;;;;;;;;6152291;28;20049;-84
2022/09/23 14:26:12;;;;;;;1.70;1.60;;;;;;;;;;6167286;28;20056;-83
2022/09/23 14:29:22;;;;;;;1.80;1.70;;;;;;;;;;6183747;28;20061;-83
2022/09/23 14:32:27;;;;;;;2.55;1.50;;;;;;;;;;6186699;28;20493;-82
2022/09/23 14:35:41;;;;;;;3.25;1.70;;;;;;;;;;6162497;28;20061;-83
2022/09/23 14:38:51;;;;;;;1.60;1.50;;;;;;;;;;6166200;28;20054;-83
2022/09/23 14:41:53;;;;;;;2.75;1.67;;;;;;;;;;6182270;28;20547;-83
2022/09/23 14:44:54;;;;;;;3.15;1.70;;;;;;;;;;6178966;28;20058;-83
2022/09/23 14:48:08;;;;;;;2.47;1.55;;;;;;;;;;6164544;28;20524;-83
2022/09/23 14:51:10;;;;;;;2.95;1.55;;;;;;;;;;6172243;28;20199;-83
2022/09/23 14:54:35;;;;;;;1.58;1.48;;;;;;;;;;6182919;28;20058;-83
2022/09/23 14:57:42;;;;;;;1.80;1.30;;;;;;;;;;6151307;28;20402;-83
2022/09/23 15:00:53;;;;;;;1.85;1.50;;;;;;;;;;6168683;28;20145;-83
2022/09/23 15:03:56;;;;;;;2.72;1.45;;;;;;;;;;6184592;28;20497;-83
2022/09/23 15:07:14;;;;;;;;;;;;;;;;;;6154218;28;20061;-83
2022/09/23 15:10:24;;;;;;;2.40;1.30;;;;;;;;;;6166693;28;20065;-83
2022/09/23 15:13:30;;;;;;;2.90;1.50;;;;;;;;;;6183603;28;20125;-84
2022/09/23 15:16:31;;;;;;;2.75;1.40;;;;;;;;;;6193294;28;20903;-84
2022/09/23 15:19:36;;;;;;;3.50;1.52;;;;;;;;;;6183235;28;20114;-84
2022/09/23 15:22:44;;;;;;;1.55;1.45;;;;;;;;;;6198465;28;20046;-84
2022/09/23 15:25:50;;;;;;;2.47;1.60;;;;;;;;;;6167932;28;20061;-84
2022/09/23 15:28:54;;;;;;;2.72;1.30;;;;;;;;;;6182210;28;20058;-84
2022/09/23 15:31:57;;;;;;;2.22;1.63;;;;;;;;;;6192486;28;20050;-83
2022/09/23 15:34:59;;;;;;;1.65;1.55;;;;;;;;;;6183928;28;20046;-83
2022/09/23 15:38:02;;;;;;;2.75;1.73;;;;;;;;;;6168692;28;20042;-84
2022/09/23 15:41:04;;;;;;;2.25;1.60;;;;;;;;;;6185774;28;20097;-84
2022/09/23 15:44:20;;;;;;;4.50;1.75;;;;;;;;;;6165710;28;20493;-84
2022/09/23 15:47:22;;;;;;;1.50;1.40;;;;;;;;;;6182071;28;20133;-84
2022/09/23 15:50:24;;;;;;;3.40;1.67;;;;;;;;;;6167088;28;20054;-84
2022/09/23 15:53:26;;;;;;;1.77;1.60;;;;;;;;;;6169083;28;20043;-84
2022/09/23 15:56:28;;;;;;;2.45;1.60;;;;;;;;;;6188703;28;20060;-84
2022/09/23 15:59:30;;;;;;;1.40;1.30;;;;;;;;;;6186663;28;20046;-84
2022/09/23 16:02:32;;;;;;;4.03;1.80;;;;;;;;;;6177021;28;20039;-84
2022/09/23 16:05:36;;;;;;;4.40;3.55;;;;;;;;;;6177894;28;20046;-84
2022/09/23 16:08:41;;;;;;;5.35;3.42;;;;;;;;;;6169529;28;20501;-84
2022/09/23 16:11:46;;;;;;;5.05;3.70;;;;;;;;;;6146498;28;20050;-84
2022/09/23 16:14:47;;;;;;;3.53;2.20;;;;;;;;;;6169508;28;20049;-84
2022/09/23 16:17:50;;;;;;;1.95;1.63;;;;;;;;;;6158530;28;20152;-84
2022/09/23 16:20:53;;;;;;;2.92;2.60;;;;;;;;;;6159375;28;20685;-84
2022/09/23 16:23:56;;;;;;;2.95;2.08;;;;;;;;;;6186904;28;20488;-84
2022/09/23 16:27:06;;;;;;;2.15;1.85;;;;;;;;;;6151440;28;20050;-84
2022/09/23 16:30:09;;;;;;;1.75;1.58;;;;;;;;;;6164246;28;20038;-85
2022/09/23 16:33:10;;;;;;;2.28;1.80;;;;;;;;;;6171406;28;20049;-84
2022/09/23 16:36:26;;;;;;;2.03;1.80;;;;;;;;;;6167210;28;20057;-84
2022/09/23 16:39:28;;;;;;;6.03;4.25;;;;;;;;;;6163317;28;20116;-84
2022/09/23 16:42:29;;;;;;;7.18;3.78;;;;;;;;;;6176057;28;20049;-84
2022/09/23 16:45:31;;;;;;;3.78;2.60;;;;;;;;;;6197554;28;20053;-84
2022/09/23 16:48:34;;;;;;;4.32;2.40;;;;;;;;;;6200870;28;20035;-84
2022/09/23 16:51:36;;;;;;;3.53;2.83;;;;;;;;;;6165424;28;20514;-84
2022/09/23 16:54:40;;;;;;;7.60;6.47;;;;;;;;;;6196640;28;20039;-84
2022/09/23 16:57:42;;;;;;;101.28;36.90;;;;;;;;;;6196972;28;20046;-84
2022/09/23 17:04:05;;;;;;;6.90;3.90;;;;;;;;;;6205536;28;20081;-84
2022/09/23 17:07:07;;;;;;;5.22;4.45;;;;;;;;;;6178262;28;20046;-84
2022/09/23 17:10:10;;;;;;;5.15;3.55;;;;;;;;;;6176155;28;20050;-84
2022/09/23 17:13:16;;;;;;;3.28;2.22;;;;;;;;;;6171513;28;20184;-84
2022/09/23 17:16:26;;;;;;;3.60;3.30;;;;;;;;;;6182604;28;20042;-84
2022/09/23 17:19:28;;;;;;;6.30;3.75;;;;;;;;;;6169220;28;20093;-84
2022/09/23 17:22:32;;;;;;;4.35;3.72;;;;;;;;;;6171599;28;20120;-84
2022/09/23 17:25:34;;;;;;;3.55;3.20;;;;;;;;;;6157884;28;20049;-84
2022/09/23 17:28:36;;;;;;;8.67;3.50;;;;;;;;;;6167909;28;20042;-85
2022/09/23 17:31:38;;;;;;;15.80;10.90;;;;;;;;;;6166735;28;20061;-85
2022/09/23 17:34:42;;;;;;;38.10;20.00;;;;;;;;;;6152428;28;20050;-84
2022/09/23 17:37:46;;;;;;;5.45;4.78;;;;;;;;;;6165524;28;20050;-85
2022/09/23 17:40:52;;;;;;;4.68;3.33;;;;;;;;;;6147769;28;20039;-84
2022/09/23 17:43:55;;;;;;;7.88;4.53;;;;;;;;;;6170535;28;20102;-85
2022/09/23 17:46:57;;;;;;;;;;;;;;;;;;6175019;28;20059;-85
2022/09/23 17:49:59;;;;;;;5.65;3.95;;;;;;;;;;6155865;28;19928;-85
2022/09/23 17:53:01;;;;;;;7.80;6.57;;;;;;;;;;6176367;28;20061;-85
2022/09/23 17:56:15;;;;;;;10.45;9.18;;;;;;;;;;6146065;28;20042;-85
2022/09/23 17:59:17;;;;;;;6.20;3.55;;;;;;;;;;6168020;28;20201;-84
2022/09/23 18:02:21;;;;;;;7.93;6.43;;;;;;;;;;6162991;28;20051;-85
2022/09/23 18:05:23;;;;;;;11.57;10.00;;;;;;;;;;6163831;28;20050;-85
2022/09/23 18:08:24;;;;;;;5.20;4.70;;;;;;;;;;6144559;28;20043;-85
2022/09/23 18:11:28;;;;;;;8.93;7.43;;;;;;;;;;6163180;28;20085;-85
2022/09/23 18:14:30;;;;;;;7.43;4.70;;;;;;;;;;6162682;28;20532;-84
2022/09/23 18:17:31;;;;;;;7.35;6.57;;;;;;;;;;6157777;28;20042;-83
2022/09/23 18:20:33;;;;;;;5.47;4.97;;;;;;;;;;6179811;28;20054;-83
2022/09/23 18:23:36;;;;;;;5.97;5.22;;;;;;;;;;6174222;28;20046;-83
2022/09/23 18:26:38;;;;;;;7.50;4.78;;;;;;;;;;6181201;28;20078;-82
2022/09/23 18:29:40;;;;;;;7.22;5.88;;;;;;;;;;6154742;28;20181;-83
2022/09/23 18:32:42;;;;;;;12.27;8.50;;;;;;;;;;6164598;28;20076;-84
2022/09/23 18:35:44;;;;;;;8.45;6.57;;;;;;;;;;6166014;28;20053;-83
2022/09/23 18:38:47;;;;;;;5.32;4.38;;;;;;;;;;6156650;28;20528;-83
2022/09/23 18:41:49;;;;;;;6.10;4.07;;;;;;;;;;6182358;28;20453;-84
2022/09/23 18:44:55;;;;;;;4.82;4.43;;;;;;;;;;6160260;28;20050;-84
2022/09/23 18:51:19;;;;;;;4.78;3.67;;;;;;;;;;6183537;28;20175;-84
2022/09/23 18:54:26;;;;;;;7.47;3.03;;;;;;;;;;6163360;28;20038;-85
2022/09/23 18:57:28;;;;;;;5.25;3.35;;;;;;;;;;6182747;28;20097;-84
2022/09/23 19:00:30;;;;;;;5.80;3.70;;;;;;;;;;6181185;28;20081;-85